createdAt,value
2022-08-02T00:03:38.185Z,5.32
2022-08-02T00:08:41.309Z,7.22
2022-08-02T00:13:44.107Z,10.23
2022-08-02T00:18:48.880Z,10.13
2022-08-02T00:24:28.312Z,8.05
2022-08-02T00:29:14.694Z,8.00
2022-08-02T00:34:28.556Z,8.15
2022-08-02T00:39:35.774Z,9.70
2022-08-02T00:44:38.852Z,7.32
2022-08-02T00:49:43.129Z,7.18
2022-08-02T00:54:46.034Z,11.10
2022-08-02T00:59:49.036Z,8.82
2022-08-02T01:04:53.343Z,9.32
2022-08-02T01:09:56.209Z,12.80
2022-08-02T01:15:01.821Z,5.75
2022-08-02T01:20:18.149Z,7.85
2022-08-02T01:25:54.437Z,8.25
2022-08-02T01:31:02.198Z,11.82
2022-08-02T01:36:08.948Z,8.13
2022-08-02T01:41:17.681Z,7.15
2022-08-02T01:46:22.754Z,10.80
2022-08-02T01:51:42.131Z,7.30
2022-08-02T01:56:46.563Z,7.93
2022-08-02T02:01:53.357Z,9.02
2022-08-02T02:06:57.745Z,9.40
2022-08-02T02:12:11.001Z,12.18
2022-08-02T02:18:11.579Z,8.68
2022-08-02T02:22:43.163Z,10.75
2022-08-02T02:27:52.977Z,5.90
2022-08-02T02:33:00.951Z,9.35
2022-08-02T02:38:07.528Z,6.70
2022-08-02T02:43:12.592Z,8.00
2022-08-02T02:48:18.441Z,10.45
2022-08-02T02:53:23.317Z,6.90
2022-08-02T02:58:28.698Z,7.97
2022-08-02T03:03:34.871Z,8.55
2022-08-02T03:08:37.731Z,4.85
2022-08-02T03:13:41.761Z,10.95
2022-08-02T03:18:45.929Z,8.30
2022-08-02T03:23:49.341Z,7.45
2022-08-02T03:28:52.141Z,7.13
2022-08-02T03:33:57.664Z,7.28
2022-08-02T03:39:01.468Z,15.90
2022-08-02T03:44:06.630Z,6.80
2022-08-02T03:49:12.949Z,8.27
2022-08-02T03:54:18.301Z,8.48
2022-08-02T03:59:21.221Z,11.68
2022-08-02T04:04:25.587Z,10.05
2022-08-02T04:09:28.453Z,12.30
2022-08-02T04:14:31.771Z,15.63
2022-08-02T04:19:46.929Z,13.00
2022-08-02T04:24:53.035Z,12.38
2022-08-02T04:29:59.713Z,12.05
2022-08-02T04:35:20.418Z,9.82
2022-08-02T04:40:23.646Z,8.60
2022-08-02T04:45:27.942Z,15.68
2022-08-02T04:50:32.264Z,11.23
2022-08-02T04:55:35.138Z,12.55
2022-08-02T05:00:38.127Z,10.73
2022-08-02T05:05:42.456Z,11.90
2022-08-02T05:10:45.280Z,8.23
2022-08-02T05:15:49.764Z,10.15
2022-08-02T05:20:58.062Z,10.88
2022-08-02T05:26:01.145Z,19.92
2022-08-02T05:31:04.046Z,17.15
2022-08-02T05:36:09.422Z,17.98
2022-08-02T05:41:12.444Z,12.90
2022-08-02T05:46:15.366Z,13.75
2022-08-02T05:51:29.811Z,10.48
2022-08-02T05:56:39.812Z,12.80
2022-08-02T06:01:44.920Z,14.70
2022-08-02T06:06:53.935Z,15.68
2022-08-02T06:12:02.847Z,14.13
2022-08-02T06:17:06.318Z,10.93
2022-08-02T06:22:35.488Z,13.93
2022-08-02T06:27:41.348Z,18.15
2022-08-02T06:32:46.441Z,17.75
2022-08-02T06:37:58.673Z,14.60
2022-08-02T06:43:12.024Z,16.35
2022-08-02T06:48:15.058Z,13.73
2022-08-02T06:53:19.329Z,11.50
2022-08-02T06:58:22.182Z,14.15
2022-08-02T07:03:25.537Z,13.90
2022-08-02T07:08:32.390Z,11.43
2022-08-02T07:13:39.535Z,12.63
2022-08-02T07:18:42.785Z,11.80
2022-08-02T07:23:47.001Z,15.13
2022-08-02T07:28:49.875Z,9.48
2022-08-02T07:33:52.847Z,10.80
2022-08-02T07:38:57.876Z,10.57
2022-08-02T07:44:00.714Z,7.97
2022-08-02T07:49:04.702Z,9.02
2022-08-02T07:54:08.918Z,9.82
2022-08-02T07:59:12.953Z,6.43
2022-08-02T08:04:15.937Z,5.85
2022-08-02T08:09:20.892Z,8.43
2022-08-02T08:14:23.680Z,9.32
2022-08-02T08:19:51.731Z,6.32
2022-08-02T08:30:28.401Z,10.18
2022-08-02T08:35:31.282Z,4.70
2022-08-02T08:40:34.134Z,6.30
2022-08-02T08:45:38.747Z,6.70
2022-08-02T08:50:48.898Z,3.70
2022-08-02T08:55:56.332Z,5.93
2022-08-02T09:01:01.190Z,4.57
2022-08-02T09:06:05.097Z,3.75
2022-08-02T09:11:14.602Z,6.85
2022-08-02T09:16:29.185Z,4.88
2022-08-02T09:21:37.164Z,7.65
2022-08-02T09:26:40.048Z,4.68
2022-08-02T09:31:49.897Z,3.33
2022-08-02T09:36:54.422Z,4.70
2022-08-02T09:42:11.236Z,4.10
2022-08-02T09:47:18.660Z,8.73
2022-08-02T09:52:43.238Z,2.95
2022-08-02T09:57:51.165Z,2.55
2022-08-02T10:03:09.143Z,6.35
2022-08-02T10:08:16.344Z,5.20
2022-08-02T10:13:20.181Z,4.95
2022-08-02T10:18:38.305Z,8.15
2022-08-02T10:23:45.090Z,4.13
2022-08-02T10:28:50.497Z,5.97
2022-08-02T10:33:56.853Z,5.60
2022-08-02T10:39:02.005Z,3.95
2022-08-02T10:44:05.198Z,4.60
2022-08-02T10:49:38.116Z,11.45
2022-08-02T10:54:40.188Z,6.60
2022-08-02T10:59:43.010Z,5.18
2022-08-02T11:05:06.850Z,4.82
2022-08-02T11:10:31.687Z,2.55
2022-08-02T11:15:49.988Z,3.45
2022-08-02T11:21:23.121Z,3.10
2022-08-02T11:26:47.243Z,2.13
2022-08-02T11:31:50.049Z,3.40
2022-08-02T11:36:54.532Z,3.00
2022-08-02T11:41:59.380Z,2.42
2022-08-02T11:47:03.433Z,3.22
2022-08-02T11:52:11.165Z,4.68
2022-08-02T11:57:19.795Z,4.20
2022-08-02T12:02:24.823Z,2.58
2022-08-02T12:07:34.366Z,2.90
2022-08-02T12:12:49.239Z,4.47
2022-08-02T12:18:09.336Z,3.08
2022-08-02T12:23:13.546Z,1.83
2022-08-02T12:28:18.656Z,3.53
2022-08-02T12:33:22.339Z,2.15
2022-08-02T12:38:26.493Z,3.50
2022-08-02T12:43:29.262Z,5.30
2022-08-02T12:48:37.544Z,2.55
2022-08-02T12:53:43.746Z,2.50
2022-08-02T12:58:50.592Z,2.70
2022-08-02T13:04:09.607Z,2.08
2022-08-02T13:09:18.249Z,2.88
2022-08-02T13:14:21.210Z,4.38
2022-08-02T13:19:24.110Z,3.35
2022-08-02T13:24:38.135Z,2.70
2022-08-02T13:29:43.333Z,2.20
2022-08-02T13:34:46.373Z,3.05
2022-08-02T13:40:18.613Z,5.20
2022-08-02T13:45:14.424Z,3.03
2022-08-02T13:50:18.166Z,2.58
2022-08-02T13:55:22.362Z,4.28
2022-08-02T14:00:35.347Z,2.03
2022-08-02T14:05:47.646Z,3.50
2022-08-02T14:10:53.362Z,4.65
2022-08-02T14:15:56.427Z,4.18
2022-08-02T14:20:59.342Z,2.03
2022-08-02T14:26:05.440Z,1.88
2022-08-02T14:31:08.278Z,7.50
2022-08-02T14:36:14.620Z,2.72
2022-08-02T14:41:18.802Z,2.55
2022-08-02T14:46:21.632Z,2.72
2022-08-02T14:51:24.456Z,3.28
2022-08-02T14:56:28.791Z,3.60
2022-08-02T15:01:32.435Z,3.03
2022-08-02T15:06:35.315Z,5.28
2022-08-02T15:11:48.316Z,2.40
2022-08-02T15:16:59.223Z,2.55
2022-08-02T15:22:08.967Z,2.60
2022-08-02T15:27:18.017Z,6.35
2022-08-02T15:32:21.237Z,5.05
2022-08-02T15:37:24.034Z,3.25
2022-08-02T15:42:30.685Z,4.68
2022-08-02T15:47:33.828Z,2.55
2022-08-02T15:52:37.539Z,2.85
2022-08-02T15:57:41.737Z,4.88
2022-08-02T16:02:44.505Z,5.32
2022-08-02T16:14:38.344Z,2.80
2022-08-02T16:19:48.777Z,3.45
2022-08-02T16:24:52.698Z,3.55
2022-08-02T16:29:56.913Z,3.67
2022-08-02T16:35:07.602Z,2.55
2022-08-02T16:40:13.206Z,3.70
2022-08-02T16:45:17.356Z,3.35
2022-08-02T16:50:28.335Z,2.83
2022-08-02T16:55:31.626Z,5.50
2022-08-02T17:00:36.230Z,3.70
2022-08-02T17:05:57.009Z,3.40
2022-08-02T17:11:03.293Z,2.78
2022-08-02T17:16:20.270Z,3.28
2022-08-02T17:21:28.977Z,3.22
2022-08-02T17:26:31.857Z,2.60
2022-08-02T17:31:42.967Z,3.33
2022-08-02T17:36:49.774Z,5.28
2022-08-02T17:41:53.187Z,3.25
2022-08-02T17:46:57.422Z,3.65
2022-08-02T17:52:15.826Z,2.10
2022-08-02T17:57:24.554Z,2.40
2022-08-02T18:02:50.467Z,6.00
2022-08-02T18:08:01.074Z,2.88
2022-08-02T18:13:05.274Z,2.92
2022-08-02T18:18:09.599Z,2.60
2022-08-02T18:23:13.874Z,3.47
2022-08-02T18:28:17.085Z,3.05
2022-08-02T18:33:57.103Z,2.30
2022-08-02T18:38:45.700Z,3.85
2022-08-02T18:43:49.355Z,2.95
2022-08-02T18:48:54.287Z,3.03
2022-08-02T18:53:58.886Z,3.05
2022-08-02T18:59:03.133Z,3.92
2022-08-02T19:04:08.714Z,2.63
2022-08-02T19:09:13.109Z,2.80
2022-08-02T19:14:24.123Z,3.00
2022-08-02T19:19:32.170Z,2.45
2022-08-02T19:24:37.019Z,3.63
2022-08-02T19:40:28.981Z,7.05
2022-08-02T19:45:50.340Z,8.75
2022-08-02T19:50:59.176Z,3.40
2022-08-02T19:56:05.006Z,8.40
2022-08-02T20:01:09.498Z,3.00
2022-08-02T20:11:43.617Z,4.82
2022-08-02T20:16:46.493Z,3.20
2022-08-02T20:21:59.460Z,5.40
2022-08-02T20:27:03.497Z,4.88
2022-08-02T20:32:07.735Z,4.20
2022-08-02T20:38:01.179Z,3.15
2022-08-02T20:42:35.376Z,5.45
2022-08-02T20:47:39.087Z,2.95
2022-08-02T20:52:43.731Z,3.33
2022-08-02T20:58:00.061Z,9.07
2022-08-02T21:03:05.857Z,4.22
2022-08-02T21:13:46.614Z,3.60
2022-08-02T21:18:51.299Z,3.28
2022-08-02T21:23:55.529Z,4.00
2022-08-02T21:28:58.378Z,3.45
2022-08-02T21:34:19.228Z,3.40
2022-08-02T21:39:27.166Z,4.47
2022-08-02T21:44:30.164Z,3.33
2022-08-02T21:50:09.670Z,4.07
2022-08-02T21:54:57.408Z,4.85
2022-08-02T22:00:01.265Z,4.18
2022-08-02T22:05:04.174Z,6.28
2022-08-02T22:10:10.083Z,4.78
2022-08-02T22:15:13.320Z,6.95
2022-08-02T22:20:18.273Z,6.00
2022-08-02T22:25:31.268Z,8.13
2022-08-02T22:30:40.614Z,6.07
2022-08-02T22:35:43.908Z,8.70
2022-08-02T22:40:49.390Z,10.13
2022-08-02T22:45:52.218Z,8.07
2022-08-02T22:50:55.086Z,6.63
2022-08-02T22:55:59.637Z,5.55
2022-08-02T22:58:48.175Z,3.72
2022-08-02T22:58:52.376Z,2.35
2022-08-02T22:58:54.482Z,3.17
2022-08-02T22:59:01.821Z,2.80
2022-08-02T23:01:02.514Z,7.00
2022-08-02T23:06:06.283Z,9.00
2022-08-02T23:11:10.534Z,6.70
2022-08-02T23:16:31.133Z,7.10
2022-08-02T23:22:01.050Z,7.63
2022-08-02T23:26:58.754Z,8.43
2022-08-02T23:32:01.586Z,10.02
2022-08-02T23:37:04.739Z,8.73
2022-08-02T23:42:09.479Z,9.38
2022-08-02T23:47:12.538Z,7.57
2022-08-02T23:52:15.679Z,7.68
2022-08-02T23:57:21.616Z,10.18
